sensor_id;sensor_type;location;lat;lon;timestamp;P1;durP1;ratioP1;P2;durP2;ratioP2
67037;SDS011;53940;53.204;6.590;2022-10-16T00:00:18;1.15;;;0.50;;
67037;SDS011;53940;53.204;6.590;2022-10-16T00:03:18;1.10;;;0.40;;
67037;SDS011;53940;53.204;6.590;2022-10-16T00:06:19;0.68;;;0.40;;
67037;SDS011;53940;53.204;6.590;2022-10-16T00:09:21;1.90;;;0.60;;
67037;SDS011;53940;53.204;6.590;2022-10-16T00:12:22;0.65;;;0.30;;
67037;SDS011;53940;53.204;6.590;2022-10-16T00:15:22;0.60;;;0.40;;
67037;SDS011;53940;53.204;6.590;2022-10-16T00:18:23;1.08;;;0.50;;
67037;SDS011;53940;53.204;6.590;2022-10-16T00:21:25;0.75;;;0.40;;
67037;SDS011;53940;53.204;6.590;2022-10-16T00:24:26;0.77;;;0.50;;
67037;SDS011;53940;53.204;6.590;2022-10-16T00:27:27;1.00;;;0.40;;
67037;SDS011;53940;53.204;6.590;2022-10-16T00:30:28;0.90;;;0.40;;
67037;SDS011;53940;53.204;6.590;2022-10-16T00:33:29;0.75;;;0.50;;
67037;SDS011;53940;53.204;6.590;2022-10-16T00:36:29;0.60;;;0.40;;
67037;SDS011;53940;53.204;6.590;2022-10-16T00:39:30;0.95;;;0.50;;
67037;SDS011;53940;53.204;6.590;2022-10-16T00:42:31;1.30;;;0.50;;
67037;SDS011;53940;53.204;6.590;2022-10-16T00:45:31;0.50;;;0.32;;
67037;SDS011;53940;53.204;6.590;2022-10-16T00:48:31;0.82;;;0.40;;
67037;SDS011;53940;53.204;6.590;2022-10-16T00:51:33;0.88;;;0.45;;
67037;SDS011;53940;53.204;6.590;2022-10-16T00:54:37;1.40;;;0.50;;
67037;SDS011;53940;53.204;6.590;2022-10-16T00:57:37;0.65;;;0.47;;
67037;SDS011;53940;53.204;6.590;2022-10-16T01:00:39;1.20;;;0.50;;
67037;SDS011;53940;53.204;6.590;2022-10-16T01:03:39;1.52;;;0.70;;
67037;SDS011;53940;53.204;6.590;2022-10-16T01:06:46;0.70;;;0.40;;
67037;SDS011;53940;53.204;6.590;2022-10-16T01:13:30;0.75;;;0.40;;
67037;SDS011;53940;53.204;6.590;2022-10-16T01:16:52;1.08;;;0.50;;
67037;SDS011;53940;53.204;6.590;2022-10-16T01:20:03;0.82;;;0.40;;
67037;SDS011;53940;53.204;6.590;2022-10-16T01:26:32;1.00;;;0.50;;
67037;SDS011;53940;53.204;6.590;2022-10-16T01:29:53;1.17;;;0.50;;
67037;SDS011;53940;53.204;6.590;2022-10-16T01:33:00;0.98;;;0.52;;
67037;SDS011;53940;53.204;6.590;2022-10-16T01:39:11;1.15;;;0.60;;
67037;SDS011;53940;53.204;6.590;2022-10-16T01:42:15;1.20;;;0.60;;
67037;SDS011;53940;53.204;6.590;2022-10-16T01:45:20;0.77;;;0.40;;
67037;SDS011;53940;53.204;6.590;2022-10-16T01:48:21;1.13;;;0.55;;
67037;SDS011;53940;53.204;6.590;2022-10-16T01:51:23;0.93;;;0.40;;
67037;SDS011;53940;53.204;6.590;2022-10-16T01:54:25;0.70;;;0.30;;
67037;SDS011;53940;53.204;6.590;2022-10-16T01:57:28;1.30;;;0.45;;
67037;SDS011;53940;53.204;6.590;2022-10-16T02:00:30;0.65;;;0.30;;
67037;SDS011;53940;53.204;6.590;2022-10-16T02:03:31;1.13;;;0.38;;
67037;SDS011;53940;53.204;6.590;2022-10-16T02:06:34;1.23;;;0.43;;
67037;SDS011;53940;53.204;6.590;2022-10-16T02:09:35;0.82;;;0.43;;
67037;SDS011;53940;53.204;6.590;2022-10-16T02:12:37;0.70;;;0.40;;
67037;SDS011;53940;53.204;6.590;2022-10-16T02:15:40;0.90;;;0.30;;
67037;SDS011;53940;53.204;6.590;2022-10-16T02:18:41;1.15;;;0.45;;
67037;SDS011;53940;53.204;6.590;2022-10-16T02:21:44;1.38;;;0.40;;
67037;SDS011;53940;53.204;6.590;2022-10-16T02:28:08;0.57;;;0.38;;
67037;SDS011;53940;53.204;6.590;2022-10-16T02:31:18;0.55;;;0.30;;
67037;SDS011;53940;53.204;6.590;2022-10-16T02:34:25;0.68;;;0.35;;
67037;SDS011;53940;53.204;6.590;2022-10-16T02:37:27;0.80;;;0.40;;
67037;SDS011;53940;53.204;6.590;2022-10-16T02:40:28;1.17;;;0.45;;
67037;SDS011;53940;53.204;6.590;2022-10-16T02:43:29;1.38;;;0.40;;
67037;SDS011;53940;53.204;6.590;2022-10-16T02:46:29;1.02;;;0.40;;
67037;SDS011;53940;53.204;6.590;2022-10-16T02:49:30;1.10;;;0.50;;
67037;SDS011;53940;53.204;6.590;2022-10-16T02:52:30;0.82;;;0.47;;
67037;SDS011;53940;53.204;6.590;2022-10-16T02:55:30;1.00;;;0.50;;
67037;SDS011;53940;53.204;6.590;2022-10-16T02:58:31;1.52;;;0.57;;
67037;SDS011;53940;53.204;6.590;2022-10-16T03:01:31;0.98;;;0.43;;
67037;SDS011;53940;53.204;6.590;2022-10-16T03:04:31;1.00;;;0.40;;
67037;SDS011;53940;53.204;6.590;2022-10-16T03:07:32;1.33;;;0.50;;
67037;SDS011;53940;53.204;6.590;2022-10-16T03:10:32;0.80;;;0.43;;
67037;SDS011;53940;53.204;6.590;2022-10-16T03:13:32;0.60;;;0.40;;
67037;SDS011;53940;53.204;6.590;2022-10-16T03:16:33;1.05;;;0.30;;
67037;SDS011;53940;53.204;6.590;2022-10-16T03:19:33;1.30;;;0.45;;
67037;SDS011;53940;53.204;6.590;2022-10-16T03:22:34;1.38;;;0.40;;
67037;SDS011;53940;53.204;6.590;2022-10-16T03:25:35;0.93;;;0.50;;
67037;SDS011;53940;53.204;6.590;2022-10-16T03:28:35;1.20;;;0.40;;
67037;SDS011;53940;53.204;6.590;2022-10-16T03:31:35;0.98;;;0.50;;
67037;SDS011;53940;53.204;6.590;2022-10-16T03:34:36;0.52;;;0.38;;
67037;SDS011;53940;53.204;6.590;2022-10-16T03:37:36;0.30;;;0.20;;
67037;SDS011;53940;53.204;6.590;2022-10-16T03:40:36;1.23;;;0.57;;
67037;SDS011;53940;53.204;6.590;2022-10-16T03:43:37;1.00;;;0.40;;
67037;SDS011;53940;53.204;6.590;2022-10-16T03:46:37;0.57;;;0.40;;
67037;SDS011;53940;53.204;6.590;2022-10-16T03:49:38;0.98;;;0.60;;
67037;SDS011;53940;53.204;6.590;2022-10-16T03:52:38;1.67;;;0.50;;
67037;SDS011;53940;53.204;6.590;2022-10-16T03:55:38;0.80;;;0.52;;
67037;SDS011;53940;53.204;6.590;2022-10-16T03:58:42;0.98;;;0.40;;
67037;SDS011;53940;53.204;6.590;2022-10-16T04:01:42;1.02;;;0.35;;
67037;SDS011;53940;53.204;6.590;2022-10-16T04:04:42;1.00;;;0.50;;
67037;SDS011;53940;53.204;6.590;2022-10-16T04:07:43;1.27;;;0.55;;
67037;SDS011;53940;53.204;6.590;2022-10-16T04:10:43;0.55;;;0.38;;
67037;SDS011;53940;53.204;6.590;2022-10-16T04:13:44;1.10;;;0.40;;
67037;SDS011;53940;53.204;6.590;2022-10-16T04:16:44;0.60;;;0.40;;
67037;SDS011;53940;53.204;6.590;2022-10-16T04:19:44;0.85;;;0.40;;
67037;SDS011;53940;53.204;6.590;2022-10-16T04:22:45;0.52;;;0.30;;
67037;SDS011;53940;53.204;6.590;2022-10-16T04:25:45;0.40;;;0.20;;
67037;SDS011;53940;53.204;6.590;2022-10-16T04:28:45;1.08;;;0.45;;
67037;SDS011;53940;53.204;6.590;2022-10-16T04:31:46;0.60;;;0.40;;
67037;SDS011;53940;53.204;6.590;2022-10-16T04:34:46;0.80;;;0.40;;
67037;SDS011;53940;53.204;6.590;2022-10-16T04:37:47;0.52;;;0.40;;
67037;SDS011;53940;53.204;6.590;2022-10-16T04:40:47;0.60;;;0.30;;
67037;SDS011;53940;53.204;6.590;2022-10-16T04:43:47;1.00;;;0.50;;
67037;SDS011;53940;53.204;6.590;2022-10-16T04:46:49;0.90;;;0.30;;
67037;SDS011;53940;53.204;6.590;2022-10-16T04:49:50;0.70;;;0.32;;
67037;SDS011;53940;53.204;6.590;2022-10-16T04:52:51;0.95;;;0.40;;
67037;SDS011;53940;53.204;6.590;2022-10-16T04:55:51;0.90;;;0.40;;
67037;SDS011;53940;53.204;6.590;2022-10-16T04:58:51;0.70;;;0.40;;
67037;SDS011;53940;53.204;6.590;2022-10-16T05:01:52;0.47;;;0.30;;
67037;SDS011;53940;53.204;6.590;2022-10-16T05:04:52;0.80;;;0.47;;
67037;SDS011;53940;53.204;6.590;2022-10-16T05:07:53;0.68;;;0.30;;
67037;SDS011;53940;53.204;6.590;2022-10-16T05:10:53;0.68;;;0.30;;
67037;SDS011;53940;53.204;6.590;2022-10-16T05:13:54;0.95;;;0.45;;
67037;SDS011;53940;53.204;6.590;2022-10-16T05:16:54;0.50;;;0.40;;
67037;SDS011;53940;53.204;6.590;2022-10-16T05:19:55;0.93;;;0.47;;
67037;SDS011;53940;53.204;6.590;2022-10-16T05:22:55;1.48;;;0.38;;
67037;SDS011;53940;53.204;6.590;2022-10-16T05:25:55;0.50;;;0.30;;
67037;SDS011;53940;53.204;6.590;2022-10-16T05:28:58;0.50;;;0.30;;
67037;SDS011;53940;53.204;6.590;2022-10-16T05:31:58;2.78;;;0.50;;
67037;SDS011;53940;53.204;6.590;2022-10-16T05:34:58;0.82;;;0.50;;
67037;SDS011;53940;53.204;6.590;2022-10-16T05:37:59;0.90;;;0.40;;
67037;SDS011;53940;53.204;6.590;2022-10-16T05:41:00;0.90;;;0.30;;
67037;SDS011;53940;53.204;6.590;2022-10-16T05:44:03;0.95;;;0.50;;
67037;SDS011;53940;53.204;6.590;2022-10-16T05:47:04;0.77;;;0.38;;
67037;SDS011;53940;53.204;6.590;2022-10-16T05:50:04;0.95;;;0.40;;
67037;SDS011;53940;53.204;6.590;2022-10-16T05:53:05;0.73;;;0.40;;
67037;SDS011;53940;53.204;6.590;2022-10-16T05:56:06;0.55;;;0.30;;
67037;SDS011;53940;53.204;6.590;2022-10-16T05:59:08;1.02;;;0.50;;
67037;SDS011;53940;53.204;6.590;2022-10-16T06:02:12;0.88;;;0.40;;
67037;SDS011;53940;53.204;6.590;2022-10-16T06:05:13;1.23;;;0.40;;
67037;SDS011;53940;53.204;6.590;2022-10-16T06:08:14;0.80;;;0.40;;
67037;SDS011;53940;53.204;6.590;2022-10-16T06:11:15;0.77;;;0.32;;
67037;SDS011;53940;53.204;6.590;2022-10-16T06:14:18;1.15;;;0.60;;
67037;SDS011;53940;53.204;6.590;2022-10-16T06:17:18;0.68;;;0.30;;
67037;SDS011;53940;53.204;6.590;2022-10-16T06:20:18;0.50;;;0.40;;
67037;SDS011;53940;53.204;6.590;2022-10-16T06:23:19;1.23;;;0.40;;
67037;SDS011;53940;53.204;6.590;2022-10-16T06:26:20;0.45;;;0.30;;
67037;SDS011;53940;53.204;6.590;2022-10-16T06:29:22;0.80;;;0.43;;
67037;SDS011;53940;53.204;6.590;2022-10-16T06:32:22;1.00;;;0.30;;
67037;SDS011;53940;53.204;6.590;2022-10-16T06:35:23;0.45;;;0.30;;
67037;SDS011;53940;53.204;6.590;2022-10-16T06:38:23;0.57;;;0.32;;
67037;SDS011;53940;53.204;6.590;2022-10-16T06:41:24;0.68;;;0.40;;
67037;SDS011;53940;53.204;6.590;2022-10-16T06:44:24;0.52;;;0.40;;
67037;SDS011;53940;53.204;6.590;2022-10-16T06:47:24;1.02;;;0.57;;
67037;SDS011;53940;53.204;6.590;2022-10-16T06:50:25;0.55;;;0.32;;
67037;SDS011;53940;53.204;6.590;2022-10-16T06:53:26;1.05;;;0.30;;
67037;SDS011;53940;53.204;6.590;2022-10-16T06:56:29;0.65;;;0.25;;
67037;SDS011;53940;53.204;6.590;2022-10-16T06:59:30;1.30;;;0.40;;
67037;SDS011;53940;53.204;6.590;2022-10-16T07:02:31;1.25;;;0.50;;
67037;SDS011;53940;53.204;6.590;2022-10-16T07:05:31;1.20;;;0.50;;
67037;SDS011;53940;53.204;6.590;2022-10-16T07:08:32;0.85;;;0.40;;
67037;SDS011;53940;53.204;6.590;2022-10-16T07:11:33;0.88;;;0.40;;
67037;SDS011;53940;53.204;6.590;2022-10-16T07:14:34;1.10;;;0.40;;
67037;SDS011;53940;53.204;6.590;2022-10-16T07:17:34;1.73;;;0.45;;
67037;SDS011;53940;53.204;6.590;2022-10-16T07:20:35;0.80;;;0.40;;
67037;SDS011;53940;53.204;6.590;2022-10-16T07:23:35;0.45;;;0.30;;
67037;SDS011;53940;53.204;6.590;2022-10-16T07:26:37;1.33;;;0.50;;
67037;SDS011;53940;53.204;6.590;2022-10-16T07:29:39;0.70;;;0.40;;
67037;SDS011;53940;53.204;6.590;2022-10-16T07:32:39;1.42;;;0.65;;
67037;SDS011;53940;53.204;6.590;2022-10-16T07:35:52;0.60;;;0.35;;
67037;SDS011;53940;53.204;6.590;2022-10-16T07:38:54;2.67;;;0.63;;
67037;SDS011;53940;53.204;6.590;2022-10-16T07:41:55;1.55;;;0.80;;
67037;SDS011;53940;53.204;6.590;2022-10-16T07:44:55;3.42;;;0.70;;
67037;SDS011;53940;53.204;6.590;2022-10-16T07:47:56;1.48;;;0.68;;
67037;SDS011;53940;53.204;6.590;2022-10-16T07:50:59;1.30;;;0.50;;
67037;SDS011;53940;53.204;6.590;2022-10-16T07:54:04;3.58;;;0.80;;
67037;SDS011;53940;53.204;6.590;2022-10-16T07:57:04;1.85;;;0.60;;
67037;SDS011;53940;53.204;6.590;2022-10-16T08:00:05;2.00;;;0.60;;
67037;SDS011;53940;53.204;6.590;2022-10-16T08:03:06;1.85;;;0.60;;
67037;SDS011;53940;53.204;6.590;2022-10-16T08:06:06;1.50;;;0.50;;
67037;SDS011;53940;53.204;6.590;2022-10-16T08:09:06;1.65;;;0.60;;
67037;SDS011;53940;53.204;6.590;2022-10-16T08:12:08;1.38;;;0.55;;
67037;SDS011;53940;53.204;6.590;2022-10-16T08:15:10;2.55;;;0.90;;
67037;SDS011;53940;53.204;6.590;2022-10-16T08:18:11;3.35;;;0.77;;
67037;SDS011;53940;53.204;6.590;2022-10-16T08:21:16;2.05;;;0.50;;
67037;SDS011;53940;53.204;6.590;2022-10-16T08:24:17;2.28;;;0.80;;
67037;SDS011;53940;53.204;6.590;2022-10-16T08:27:18;2.10;;;0.80;;
67037;SDS011;53940;53.204;6.590;2022-10-16T08:30:19;2.10;;;0.60;;
67037;SDS011;53940;53.204;6.590;2022-10-16T08:33:20;2.58;;;0.60;;
67037;SDS011;53940;53.204;6.590;2022-10-16T08:36:21;2.45;;;0.60;;
67037;SDS011;53940;53.204;6.590;2022-10-16T08:39:21;2.67;;;0.80;;
67037;SDS011;53940;53.204;6.590;2022-10-16T08:48:56;2.73;;;0.70;;
67037;SDS011;53940;53.204;6.590;2022-10-16T08:51:59;1.92;;;0.68;;
67037;SDS011;53940;53.204;6.590;2022-10-16T08:55:00;1.50;;;0.70;;
67037;SDS011;53940;53.204;6.590;2022-10-16T08:58:01;1.80;;;0.68;;
67037;SDS011;53940;53.204;6.590;2022-10-16T09:01:03;1.70;;;0.50;;
67037;SDS011;53940;53.204;6.590;2022-10-16T09:14:07;1.98;;;0.80;;
67037;SDS011;53940;53.204;6.590;2022-10-16T09:17:20;2.58;;;0.65;;
67037;SDS011;53940;53.204;6.590;2022-10-16T09:23:47;1.10;;;0.32;;
67037;SDS011;53940;53.204;6.590;2022-10-16T09:26:47;3.05;;;0.70;;
67037;SDS011;53940;53.204;6.590;2022-10-16T09:29:48;1.55;;;0.47;;
67037;SDS011;53940;53.204;6.590;2022-10-16T09:32:50;2.22;;;0.60;;
67037;SDS011;53940;53.204;6.590;2022-10-16T09:35:53;1.15;;;0.45;;
67037;SDS011;53940;53.204;6.590;2022-10-16T09:39:05;1.25;;;0.47;;
67037;SDS011;53940;53.204;6.590;2022-10-16T09:42:09;1.85;;;0.57;;
67037;SDS011;53940;53.204;6.590;2022-10-16T09:45:20;1.42;;;0.50;;
67037;SDS011;53940;53.204;6.590;2022-10-16T09:48:23;1.25;;;0.50;;
67037;SDS011;53940;53.204;6.590;2022-10-16T09:51:28;1.50;;;0.55;;
67037;SDS011;53940;53.204;6.590;2022-10-16T09:54:30;0.85;;;0.45;;
67037;SDS011;53940;53.204;6.590;2022-10-16T09:57:31;1.08;;;0.43;;
67037;SDS011;53940;53.204;6.590;2022-10-16T10:00:31;1.33;;;0.40;;
67037;SDS011;53940;53.204;6.590;2022-10-16T10:03:33;1.17;;;0.50;;
67037;SDS011;53940;53.204;6.590;2022-10-16T10:06:40;1.20;;;0.45;;
67037;SDS011;53940;53.204;6.590;2022-10-16T10:09:43;0.88;;;0.35;;
67037;SDS011;53940;53.204;6.590;2022-10-16T10:12:45;1.77;;;0.60;;
67037;SDS011;53940;53.204;6.590;2022-10-16T10:15:46;1.20;;;0.30;;
67037;SDS011;53940;53.204;6.590;2022-10-16T10:18:46;1.15;;;0.50;;
67037;SDS011;53940;53.204;6.590;2022-10-16T10:21:47;1.88;;;0.50;;
67037;SDS011;53940;53.204;6.590;2022-10-16T10:38:10;1.48;;;0.50;;
67037;SDS011;53940;53.204;6.590;2022-10-16T10:44:52;0.93;;;0.50;;
67037;SDS011;53940;53.204;6.590;2022-10-16T11:08:09;1.85;;;0.50;;
67037;SDS011;53940;53.204;6.590;2022-10-16T11:11:15;1.73;;;0.68;;
67037;SDS011;53940;53.204;6.590;2022-10-16T11:14:24;1.00;;;0.38;;
67037;SDS011;53940;53.204;6.590;2022-10-16T11:17:32;1.30;;;0.57;;
67037;SDS011;53940;53.204;6.590;2022-10-16T11:20:54;2.53;;;0.68;;
67037;SDS011;53940;53.204;6.590;2022-10-16T11:27:12;1.80;;;0.70;;
67037;SDS011;53940;53.204;6.590;2022-10-16T11:30:20;1.85;;;0.60;;
67037;SDS011;53940;53.204;6.590;2022-10-16T11:33:31;1.63;;;0.70;;
67037;SDS011;53940;53.204;6.590;2022-10-16T11:36:48;1.90;;;0.60;;
67037;SDS011;53940;53.204;6.590;2022-10-16T11:39:58;2.38;;;0.68;;
67037;SDS011;53940;53.204;6.590;2022-10-16T11:43:22;2.80;;;0.68;;
67037;SDS011;53940;53.204;6.590;2022-10-16T11:46:28;2.92;;;0.70;;
67037;SDS011;53940;53.204;6.590;2022-10-16T11:49:33;2.15;;;0.70;;
67037;SDS011;53940;53.204;6.590;2022-10-16T11:52:39;1.60;;;0.60;;
67037;SDS011;53940;53.204;6.590;2022-10-16T11:55:44;2.08;;;0.80;;
67037;SDS011;53940;53.204;6.590;2022-10-16T12:02:03;0.95;;;0.55;;
67037;SDS011;53940;53.204;6.590;2022-10-16T12:08:51;1.00;;;0.40;;
67037;SDS011;53940;53.204;6.590;2022-10-16T12:11:53;1.55;;;0.50;;
67037;SDS011;53940;53.204;6.590;2022-10-16T12:15:02;1.88;;;0.60;;
67037;SDS011;53940;53.204;6.590;2022-10-16T12:18:21;2.03;;;0.70;;
67037;SDS011;53940;53.204;6.590;2022-10-16T12:21:23;2.20;;;0.50;;
67037;SDS011;53940;53.204;6.590;2022-10-16T12:27:35;1.77;;;0.60;;
67037;SDS011;53940;53.204;6.590;2022-10-16T12:30:37;1.83;;;0.73;;
67037;SDS011;53940;53.204;6.590;2022-10-16T12:33:41;1.70;;;0.60;;
67037;SDS011;53940;53.204;6.590;2022-10-16T12:36:51;1.80;;;0.60;;
67037;SDS011;53940;53.204;6.590;2022-10-16T12:39:51;1.65;;;0.40;;
67037;SDS011;53940;53.204;6.590;2022-10-16T12:42:54;3.15;;;0.60;;
67037;SDS011;53940;53.204;6.590;2022-10-16T12:52:26;1.50;;;0.60;;
67037;SDS011;53940;53.204;6.590;2022-10-16T12:55:58;1.95;;;0.43;;
67037;SDS011;53940;53.204;6.590;2022-10-16T13:02:47;1.83;;;0.60;;
67037;SDS011;53940;53.204;6.590;2022-10-16T13:09:02;2.22;;;0.80;;
67037;SDS011;53940;53.204;6.590;2022-10-16T13:22:15;1.65;;;0.57;;
67037;SDS011;53940;53.204;6.590;2022-10-16T13:28:47;1.38;;;0.47;;
67037;SDS011;53940;53.204;6.590;2022-10-16T13:31:47;1.80;;;0.55;;
67037;SDS011;53940;53.204;6.590;2022-10-16T13:34:48;0.80;;;0.50;;
67037;SDS011;53940;53.204;6.590;2022-10-16T13:37:49;0.52;;;0.30;;
67037;SDS011;53940;53.204;6.590;2022-10-16T13:40:51;1.33;;;0.60;;
67037;SDS011;53940;53.204;6.590;2022-10-16T13:43:52;1.38;;;0.50;;
67037;SDS011;53940;53.204;6.590;2022-10-16T13:46:59;1.38;;;0.60;;
67037;SDS011;53940;53.204;6.590;2022-10-16T13:53:06;0.70;;;0.38;;
67037;SDS011;53940;53.204;6.590;2022-10-16T13:56:12;1.92;;;0.60;;
67037;SDS011;53940;53.204;6.590;2022-10-16T13:59:25;1.33;;;0.50;;
67037;SDS011;53940;53.204;6.590;2022-10-16T14:02:36;1.08;;;0.55;;
67037;SDS011;53940;53.204;6.590;2022-10-16T14:05:47;1.45;;;0.40;;
67037;SDS011;53940;53.204;6.590;2022-10-16T14:08:53;1.02;;;0.50;;
67037;SDS011;53940;53.204;6.590;2022-10-16T14:12:00;1.50;;;0.50;;
67037;SDS011;53940;53.204;6.590;2022-10-16T14:15:03;1.05;;;0.40;;
67037;SDS011;53940;53.204;6.590;2022-10-16T14:18:03;1.80;;;0.60;;
67037;SDS011;53940;53.204;6.590;2022-10-16T14:21:05;1.08;;;0.50;;
67037;SDS011;53940;53.204;6.590;2022-10-16T14:24:10;1.00;;;0.50;;
67037;SDS011;53940;53.204;6.590;2022-10-16T14:34:39;1.58;;;0.50;;
67037;SDS011;53940;53.204;6.590;2022-10-16T14:37:40;0.93;;;0.50;;
67037;SDS011;53940;53.204;6.590;2022-10-16T14:40:45;1.85;;;0.57;;
67037;SDS011;53940;53.204;6.590;2022-10-16T14:43:49;1.30;;;0.50;;
67037;SDS011;53940;53.204;6.590;2022-10-16T14:46:53;2.33;;;0.55;;
67037;SDS011;53940;53.204;6.590;2022-10-16T14:49:53;1.88;;;0.70;;
67037;SDS011;53940;53.204;6.590;2022-10-16T14:52:55;1.27;;;0.55;;
67037;SDS011;53940;53.204;6.590;2022-10-16T14:55:56;1.73;;;0.55;;
67037;SDS011;53940;53.204;6.590;2022-10-16T14:58:56;1.67;;;0.70;;
67037;SDS011;53940;53.204;6.590;2022-10-16T15:01:57;2.15;;;0.70;;
67037;SDS011;53940;53.204;6.590;2022-10-16T15:04:57;0.68;;;0.38;;
67037;SDS011;53940;53.204;6.590;2022-10-16T15:08:02;2.05;;;0.55;;
67037;SDS011;53940;53.204;6.590;2022-10-16T15:11:04;1.65;;;0.50;;
67037;SDS011;53940;53.204;6.590;2022-10-16T15:14:05;1.48;;;0.40;;
67037;SDS011;53940;53.204;6.590;2022-10-16T15:17:08;1.30;;;0.40;;
67037;SDS011;53940;53.204;6.590;2022-10-16T15:20:10;3.25;;;0.70;;
67037;SDS011;53940;53.204;6.590;2022-10-16T15:23:14;0.88;;;0.40;;
67037;SDS011;53940;53.204;6.590;2022-10-16T15:26:16;1.83;;;0.47;;
67037;SDS011;53940;53.204;6.590;2022-10-16T15:29:16;1.73;;;0.70;;
67037;SDS011;53940;53.204;6.590;2022-10-16T15:32:17;2.10;;;0.52;;
67037;SDS011;53940;53.204;6.590;2022-10-16T15:35:17;1.40;;;0.60;;
67037;SDS011;53940;53.204;6.590;2022-10-16T15:38:18;3.20;;;0.60;;
67037;SDS011;53940;53.204;6.590;2022-10-16T15:41:20;2.15;;;0.50;;
67037;SDS011;53940;53.204;6.590;2022-10-16T15:44:21;2.83;;;0.85;;
67037;SDS011;53940;53.204;6.590;2022-10-16T15:47:29;1.77;;;0.60;;
67037;SDS011;53940;53.204;6.590;2022-10-16T15:50:30;1.30;;;0.60;;
67037;SDS011;53940;53.204;6.590;2022-10-16T15:53:31;1.77;;;0.60;;
67037;SDS011;53940;53.204;6.590;2022-10-16T15:56:31;2.25;;;0.50;;
67037;SDS011;53940;53.204;6.590;2022-10-16T15:59:33;1.05;;;0.50;;
67037;SDS011;53940;53.204;6.590;2022-10-16T16:02:33;2.15;;;0.77;;
67037;SDS011;53940;53.204;6.590;2022-10-16T16:05:36;2.08;;;0.70;;
67037;SDS011;53940;53.204;6.590;2022-10-16T16:08:38;3.05;;;0.55;;
67037;SDS011;53940;53.204;6.590;2022-10-16T16:11:39;1.27;;;0.50;;
67037;SDS011;53940;53.204;6.590;2022-10-16T16:14:40;2.38;;;0.55;;
67037;SDS011;53940;53.204;6.590;2022-10-16T16:17:40;1.38;;;0.50;;
67037;SDS011;53940;53.204;6.590;2022-10-16T16:20:40;1.35;;;0.60;;
67037;SDS011;53940;53.204;6.590;2022-10-16T16:23:44;0.95;;;0.60;;
67037;SDS011;53940;53.204;6.590;2022-10-16T16:26:44;1.10;;;0.50;;
67037;SDS011;53940;53.204;6.590;2022-10-16T16:29:45;1.63;;;0.60;;
67037;SDS011;53940;53.204;6.590;2022-10-16T16:32:45;1.50;;;0.60;;
67037;SDS011;53940;53.204;6.590;2022-10-16T16:35:46;2.08;;;0.60;;
67037;SDS011;53940;53.204;6.590;2022-10-16T16:38:46;1.60;;;0.60;;
67037;SDS011;53940;53.204;6.590;2022-10-16T16:41:47;1.67;;;0.63;;
67037;SDS011;53940;53.204;6.590;2022-10-16T16:44:47;1.83;;;0.68;;
67037;SDS011;53940;53.204;6.590;2022-10-16T16:47:48;1.77;;;0.57;;
67037;SDS011;53940;53.204;6.590;2022-10-16T16:50:48;1.08;;;0.60;;
67037;SDS011;53940;53.204;6.590;2022-10-16T16:53:50;2.05;;;0.57;;
67037;SDS011;53940;53.204;6.590;2022-10-16T16:56:52;1.63;;;0.75;;
67037;SDS011;53940;53.204;6.590;2022-10-16T16:59:52;1.30;;;0.50;;
67037;SDS011;53940;53.204;6.590;2022-10-16T17:02:52;1.52;;;0.60;;
67037;SDS011;53940;53.204;6.590;2022-10-16T17:05:57;1.02;;;0.47;;
67037;SDS011;53940;53.204;6.590;2022-10-16T17:09:00;1.88;;;0.60;;
67037;SDS011;53940;53.204;6.590;2022-10-16T17:12:02;1.73;;;0.70;;
67037;SDS011;53940;53.204;6.590;2022-10-16T17:15:03;1.63;;;0.80;;
67037;SDS011;53940;53.204;6.590;2022-10-16T17:18:03;2.55;;;0.70;;
67037;SDS011;53940;53.204;6.590;2022-10-16T17:21:05;4.00;;;1.00;;
67037;SDS011;53940;53.204;6.590;2022-10-16T17:24:07;1.55;;;0.70;;
67037;SDS011;53940;53.204;6.590;2022-10-16T17:27:08;2.50;;;0.70;;
67037;SDS011;53940;53.204;6.590;2022-10-16T17:30:09;1.30;;;0.75;;
67037;SDS011;53940;53.204;6.590;2022-10-16T17:33:10;1.38;;;0.60;;
67037;SDS011;53940;53.204;6.590;2022-10-16T17:36:12;2.25;;;0.75;;
67037;SDS011;53940;53.204;6.590;2022-10-16T17:39:16;1.85;;;0.63;;
67037;SDS011;53940;53.204;6.590;2022-10-16T17:42:18;2.72;;;1.00;;
67037;SDS011;53940;53.204;6.590;2022-10-16T17:45:18;1.60;;;0.82;;
67037;SDS011;53940;53.204;6.590;2022-10-16T17:48:18;1.13;;;0.68;;
67037;SDS011;53940;53.204;6.590;2022-10-16T17:51:20;2.10;;;0.80;;
67037;SDS011;53940;53.204;6.590;2022-10-16T17:54:25;2.35;;;0.75;;
67037;SDS011;53940;53.204;6.590;2022-10-16T17:57:25;1.58;;;0.80;;
67037;SDS011;53940;53.204;6.590;2022-10-16T18:00:25;3.40;;;0.70;;
67037;SDS011;53940;53.204;6.590;2022-10-16T18:03:27;2.10;;;1.08;;
67037;SDS011;53940;53.204;6.590;2022-10-16T18:06:28;1.95;;;0.73;;
67037;SDS011;53940;53.204;6.590;2022-10-16T18:09:30;2.17;;;0.82;;
67037;SDS011;53940;53.204;6.590;2022-10-16T18:12:30;1.60;;;0.75;;
67037;SDS011;53940;53.204;6.590;2022-10-16T18:15:30;2.55;;;0.88;;
67037;SDS011;53940;53.204;6.590;2022-10-16T18:18:31;2.88;;;0.90;;
67037;SDS011;53940;53.204;6.590;2022-10-16T18:21:31;1.58;;;0.80;;
67037;SDS011;53940;53.204;6.590;2022-10-16T18:24:31;1.92;;;0.80;;
67037;SDS011;53940;53.204;6.590;2022-10-16T18:27:32;2.35;;;0.80;;
67037;SDS011;53940;53.204;6.590;2022-10-16T18:30:33;2.38;;;0.80;;
67037;SDS011;53940;53.204;6.590;2022-10-16T18:33:33;2.00;;;0.77;;
67037;SDS011;53940;53.204;6.590;2022-10-16T18:36:34;1.48;;;0.77;;
67037;SDS011;53940;53.204;6.590;2022-10-16T18:39:35;3.03;;;0.93;;
67037;SDS011;53940;53.204;6.590;2022-10-16T18:42:35;2.40;;;0.90;;
67037;SDS011;53940;53.204;6.590;2022-10-16T18:45:35;1.98;;;0.80;;
67037;SDS011;53940;53.204;6.590;2022-10-16T18:48:36;1.88;;;0.90;;
67037;SDS011;53940;53.204;6.590;2022-10-16T18:51:38;1.70;;;0.80;;
67037;SDS011;53940;53.204;6.590;2022-10-16T18:54:40;1.67;;;0.80;;
67037;SDS011;53940;53.204;6.590;2022-10-16T18:57:40;2.00;;;0.88;;
67037;SDS011;53940;53.204;6.590;2022-10-16T19:00:40;1.38;;;0.80;;
67037;SDS011;53940;53.204;6.590;2022-10-16T19:03:41;2.25;;;0.85;;
67037;SDS011;53940;53.204;6.590;2022-10-16T19:06:42;2.20;;;0.73;;
67037;SDS011;53940;53.204;6.590;2022-10-16T19:09:47;2.45;;;0.90;;
67037;SDS011;53940;53.204;6.590;2022-10-16T19:12:48;2.35;;;0.73;;
67037;SDS011;53940;53.204;6.590;2022-10-16T19:15:48;2.03;;;0.73;;
67037;SDS011;53940;53.204;6.590;2022-10-16T19:18:49;1.35;;;0.68;;
67037;SDS011;53940;53.204;6.590;2022-10-16T19:21:51;1.75;;;0.82;;
67037;SDS011;53940;53.204;6.590;2022-10-16T19:25:00;1.40;;;0.70;;
67037;SDS011;53940;53.204;6.590;2022-10-16T19:28:00;1.58;;;0.70;;
67037;SDS011;53940;53.204;6.590;2022-10-16T19:31:07;1.85;;;0.85;;
67037;SDS011;53940;53.204;6.590;2022-10-16T19:34:10;2.13;;;0.88;;
67037;SDS011;53940;53.204;6.590;2022-10-16T19:37:11;2.25;;;0.90;;
67037;SDS011;53940;53.204;6.590;2022-10-16T19:40:11;2.33;;;0.93;;
67037;SDS011;53940;53.204;6.590;2022-10-16T19:43:11;2.72;;;0.90;;
67037;SDS011;53940;53.204;6.590;2022-10-16T19:46:13;1.30;;;0.57;;
67037;SDS011;53940;53.204;6.590;2022-10-16T19:49:22;1.90;;;0.80;;
67037;SDS011;53940;53.204;6.590;2022-10-16T19:52:22;2.25;;;0.90;;
67037;SDS011;53940;53.204;6.590;2022-10-16T19:55:22;1.58;;;0.70;;
67037;SDS011;53940;53.204;6.590;2022-10-16T19:58:23;2.00;;;0.80;;
67037;SDS011;53940;53.204;6.590;2022-10-16T20:01:25;1.92;;;0.80;;
67037;SDS011;53940;53.204;6.590;2022-10-16T20:04:26;1.63;;;0.70;;
67037;SDS011;53940;53.204;6.590;2022-10-16T20:07:27;1.05;;;0.50;;
67037;SDS011;53940;53.204;6.590;2022-10-16T20:10:27;1.45;;;0.57;;
67037;SDS011;53940;53.204;6.590;2022-10-16T20:13:28;2.22;;;0.75;;
67037;SDS011;53940;53.204;6.590;2022-10-16T20:16:29;1.45;;;0.60;;
67037;SDS011;53940;53.204;6.590;2022-10-16T20:19:31;2.03;;;0.73;;